Time;durP1;ratioP1;P1;durP2;ratioP2;P2;SDS_P1;SDS_P2;PMS_P1;PMS_P2;Temp;Humidity;BMP_temperature;BMP_pressure;BME280_temperature;BME280_humidity;BME280_pressure;Samples;Min_cycle;Max_cycle;Signal;HPM_P1;HPM_P2
2021/06/21 00:09:32;;;;;;;7.90;1.40;;;24.50;99.90;;;;;;20898562;28;20251;-76
2021/06/21 00:19:38;;;;;;;0.68;0.50;;;24.70;99.90;;;;;;20898592;28;20495;-78
2021/06/21 00:29:41;;;;;;;3.08;1.67;;;24.70;99.90;;;;;;20878748;28;20197;-78
2021/06/21 00:39:46;;;;;;;14.10;1.33;;;24.80;99.90;;;;;;20905163;28;20249;-75
2021/06/21 00:49:53;;;;;;;2.63;1.45;;;24.40;99.90;;;;;;20911080;28;20198;-75
2021/06/21 01:00:00;;;;;;;1.63;1.53;;;24.10;99.90;;;;;;20923314;22;20590;-69
2021/06/21 01:10:05;;;;;;;5.87;1.13;;;23.90;99.90;;;;;;20909392;28;20240;-69
2021/06/21 01:20:38;;;;;;;2.00;1.83;;;23.80;99.90;;;;;;20908066;28;20217;-68
2021/06/21 01:30:52;;;;;;;4.43;1.57;;;23.70;99.90;;;;;;20905814;28;20216;-69
2021/06/21 01:41:02;;;;;;;1.13;1.03;;;23.60;99.90;;;;;;20905372;28;20272;-69
2021/06/21 01:51:06;;;;;;;1.27;0.93;;;23.60;99.90;;;;;;20905776;28;20221;-69
2021/06/21 02:01:16;;;;;;;1.00;0.90;;;23.50;99.90;;;;;;20884445;22;20241;-76
2021/06/21 02:11:20;;;;;;;1.20;1.10;;;23.40;99.90;;;;;;20822251;28;20694;-76
2021/06/21 02:21:26;;;;;;;8.90;1.90;;;23.30;99.90;;;;;;20803653;28;20636;-75
2021/06/21 02:31:31;;;;;;;1.40;1.30;;;23.10;99.90;;;;;;20802799;28;20230;-76
2021/06/21 02:41:37;;;;;;;5.77;0.93;;;22.70;99.90;;;;;;20820059;28;20601;-74
2021/06/21 02:51:44;;;;;;;1.37;0.90;;;22.60;99.90;;;;;;20818750;28;20249;-76
2021/06/21 03:01:53;;;;;;;0.50;0.50;;;22.50;99.90;;;;;;20852436;23;20619;-71
2021/06/21 03:12:00;;;;;;;0.83;0.77;;;22.50;99.90;;;;;;20900664;28;20232;-72
2021/06/21 03:22:05;;;;;;;1.37;0.80;;;22.50;99.90;;;;;;20900309;28;20193;-71
2021/06/21 03:32:26;;;;;;;0.83;0.83;;;22.20;99.90;;;;;;20865992;28;20287;-70
2021/06/21 03:42:31;;;;;;;0.97;0.90;;;22.00;99.90;;;;;;20882451;28;20693;-70
2021/06/21 03:52:35;;;;;;;1.33;1.00;;;22.20;99.90;;;;;;20899138;28;20694;-70
2021/06/21 04:02:40;;;;;;;0.63;0.63;;;22.20;99.90;;;;;;20937570;22;20260;-76
2021/06/21 04:12:44;;;;;;;1.03;0.80;;;22.10;99.90;;;;;;20987286;28;20238;-76
2021/06/21 04:22:49;;;;;;;0.83;0.80;;;22.10;99.90;;;;;;20995658;28;20192;-77
2021/06/21 04:32:54;;;;;;;0.30;0.20;;;22.20;99.90;;;;;;20997696;28;20228;-77
2021/06/21 04:42:59;;;;;;;0.97;0.53;;;23.20;99.90;;;;;;21010821;28;20223;-80
2021/06/21 04:53:03;;;;;;;0.20;0.10;;;23.40;99.90;;;;;;20983985;28;20622;-80
2021/06/21 05:03:09;;;;;;;0.20;0.20;;;23.50;99.90;;;;;;20993672;28;20256;-77
2021/06/21 05:13:12;;;;;;;2.53;0.80;;;23.50;99.90;;;;;;20956518;28;20243;-79
2021/06/21 05:23:18;;;;;;;0.20;0.10;;;23.70;99.90;;;;;;20989770;28;20283;-75
2021/06/21 05:33:22;;;;;;;0.90;0.40;;;23.80;99.90;;;;;;20952720;28;20315;-75
2021/06/21 05:43:27;;;;;;;5.68;0.22;;;23.90;99.90;;;;;;20989927;28;20192;-76
2021/06/21 05:53:31;;;;;;;0.40;0.35;;;24.00;99.90;;;;;;20988018;28;20780;-78
2021/06/21 06:03:36;;;;;;;0.47;0.40;;;24.30;99.90;;;;;;20948929;28;20225;-80
2021/06/21 06:13:39;;;;;;;1.27;0.55;;;24.40;99.90;;;;;;20968353;28;20711;-76
2021/06/21 06:23:45;;;;;;;0.30;0.20;;;24.70;99.90;;;;;;20948809;28;20221;-79
2021/06/21 06:33:48;;;;;;;1.30;0.40;;;25.20;99.90;;;;;;20885739;28;20640;-80
2021/06/21 06:43:54;;;;;;;0.40;0.30;;;25.30;99.90;;;;;;20902660;28;20284;-80
2021/06/21 06:54:03;;;;;;;0.57;0.50;;;25.80;99.90;;;;;;20902441;28;20232;-76
2021/06/21 07:04:08;;;;;;;0.22;0.22;;;25.80;99.90;;;;;;20921414;28;20640;-78
2021/06/21 07:14:12;;;;;;;0.85;0.50;;;25.70;99.90;;;;;;20981373;28;20251;-73
2021/06/21 07:24:19;;;;;;;0.60;0.50;;;25.80;99.90;;;;;;20934938;28;20524;-73
2021/06/21 07:34:23;;;;;;;4.03;0.52;;;26.00;99.90;;;;;;20876979;28;20221;-76
2021/06/21 07:44:29;;;;;;;0.63;0.38;;;26.40;99.90;;;;;;20909163;28;20244;-74
2021/06/21 07:54:33;;;;;;;2.67;0.40;;;26.80;99.90;;;;;;20912051;28;20300;-73
2021/06/21 08:04:38;;;;;;;0.20;0.15;;;26.80;99.90;;;;;;20953712;28;20600;-76
2021/06/21 08:14:43;;;;;;;0.30;0.30;;;27.10;99.90;;;;;;20977646;28;20597;-74
2021/06/21 08:24:48;;;;;;;0.47;0.40;;;27.30;99.90;;;;;;20929985;28;20284;-75
2021/06/21 08:34:51;;;;;;;0.43;0.17;;;27.40;99.90;;;;;;20912270;28;20225;-73
2021/06/21 08:44:57;;;;;;;6.85;1.08;;;27.60;99.90;;;;;;20911591;28;20193;-75
2021/06/21 08:55:04;;;;;;;0.30;0.20;;;27.80;99.90;;;;;;20890376;28;20237;-73
2021/06/21 09:05:11;;;;;;;0.20;0.20;;;28.10;99.90;;;;;;20953714;28;20221;-79
2021/06/21 09:15:15;;;;;;;1.10;0.75;;;27.90;99.90;;;;;;20992100;28;20224;-75
2021/06/21 09:25:25;;;;;;;5.10;1.17;;;26.10;99.90;;;;;;20991525;28;20621;-76
2021/06/21 09:35:40;;;;;;;3.28;0.60;;;25.50;99.90;;;;;;20989131;28;20222;-76
2021/06/21 09:46:02;;;;;;;0.57;0.50;;;25.60;99.90;;;;;;20988303;28;20728;-78
2021/06/21 09:56:06;;;;;;;1.75;0.75;;;26.10;99.90;;;;;;20988111;28;20255;-74
2021/06/21 10:06:13;;;;;;;2.63;0.63;;;26.10;99.90;;;;;;20985658;28;20237;-76
2021/06/21 10:16:17;;;;;;;1.17;0.95;;;26.10;99.90;;;;;;20985995;28;20715;-76
2021/06/21 10:26:23;;;;;;;4.85;1.30;;;26.50;99.90;;;;;;20967425;28;20224;-77
2021/06/21 10:36:41;;;;;;;1.52;0.60;;;26.90;99.90;;;;;;20984130;28;20220;-75
2021/06/21 10:46:46;;;;;;;1.65;1.08;;;26.30;99.90;;;;;;20983166;28;20197;-78
2021/06/21 10:56:52;;;;;;;4.03;1.10;;;27.10;99.90;;;;;;20981066;28;20268;-75
2021/06/21 11:07:11;;;;;;;0.68;0.43;;;27.30;99.90;;;;;;20982385;28;20229;-75
2021/06/21 11:17:22;;;;;;;0.95;0.80;;;27.90;99.90;;;;;;20978447;28;20221;-76
2021/06/21 11:27:44;;;;;;;1.55;1.10;;;28.00;99.90;;;;;;20981094;28;20199;-78
2021/06/21 11:37:50;;;;;;;1.02;0.93;;;30.60;99.90;;;;;;20981234;28;20348;-78
2021/06/21 11:47:55;;;;;;;5.60;1.27;;;31.20;99.90;;;;;;20979096;28;20201;-78
2021/06/21 11:57:59;;;;;;;0.80;0.68;;;30.50;99.90;;;;;;20961964;28;20231;-74
2021/06/21 12:08:14;;;;;;;1.77;0.70;;;29.10;99.90;;;;;;20960658;28;20220;-72
2021/06/21 12:18:28;;;;;;;1.55;1.35;;;29.30;99.90;;;;;;20978788;28;20224;-77
2021/06/21 12:28:33;;;;;;;1.77;0.60;;;28.70;99.90;;;;;;20960650;28;20255;-77
2021/06/21 12:38:37;;;;;;;7.60;0.75;;;29.90;99.90;;;;;;20991373;28;20571;-78
2021/06/21 12:48:44;;;;;;;3.15;0.75;;;29.20;99.90;;;;;;20992803;28;20327;-74
2021/06/21 12:58:48;;;;;;;4.70;1.02;;;29.40;99.90;;;;;;20992568;28;20221;-77
2021/06/21 13:09:00;;;;;;;4.30;1.17;;;30.70;99.90;;;;;;20991362;28;20225;-78
2021/06/21 13:19:13;;;;;;;4.57;0.95;;;30.70;99.90;;;;;;20989071;28;20707;-75
2021/06/21 13:29:21;;;;;;;0.63;0.50;;;30.90;99.90;;;;;;20985878;28;20626;-74
2021/06/21 13:39:27;;;;;;;0.60;0.50;;;32.00;99.90;;;;;;20985670;28;20224;-75
2021/06/21 13:49:33;;;;;;;1.40;0.90;;;31.40;99.90;;;;;;20983109;28;20284;-76
2021/06/21 13:59:45;;;;;;;2.63;0.88;;;31.80;99.90;;;;;;20979865;28;20221;-76
2021/06/21 14:10:15;;;;;;;0.57;0.40;;;31.10;99.90;;;;;;20963103;28;20231;-76
2021/06/21 14:20:18;;;;;;;1.65;0.85;;;31.60;99.90;;;;;;20963487;28;20223;-78
2021/06/21 14:30:25;;;;;;;1.52;1.00;;;32.20;99.90;;;;;;20971640;28;20197;-78
2021/06/21 14:40:29;;;;;;;2.97;2.22;;;32.40;99.90;;;;;;20982650;28;20601;-69
2021/06/21 14:50:35;;;;;;;5.32;1.83;;;33.40;99.90;;;;;;20977701;28;20542;-74
2021/06/21 15:00:40;;;;;;;1.83;0.98;;;33.70;99.90;;;;;;20976959;28;20294;-77
2021/06/21 15:10:46;;;;;;;7.55;1.30;;;34.40;99.90;;;;;;20942069;28;20549;-77
2021/06/21 15:20:50;;;;;;;1.55;1.25;;;34.60;99.90;;;;;;20975952;28;20221;-76
2021/06/21 15:30:56;;;;;;;1.92;1.30;;;33.90;99.90;;;;;;20975911;28;20275;-73
2021/06/21 15:41:01;;;;;;;2.67;1.63;;;32.70;99.90;;;;;;20979191;28;20223;-74
2021/06/21 15:51:09;;;;;;;11.40;1.55;;;32.70;99.90;;;;;;20978331;28;20192;-73
2021/06/21 16:01:13;;;;;;;1.03;0.87;;;32.60;99.90;;;;;;20975836;28;20451;-73
2021/06/21 16:11:18;;;;;;;1.73;1.45;;;33.60;99.90;;;;;;20989233;28;20708;-75
2021/06/21 16:21:23;;;;;;;2.08;1.08;;;33.00;99.90;;;;;;20992743;28;20221;-79
2021/06/21 16:31:29;;;;;;;0.82;0.50;;;32.00;99.90;;;;;;20990640;28;20193;-76
2021/06/21 16:41:33;;;;;;;3.28;0.93;;;33.00;99.90;;;;;;20990498;28;20236;-80
2021/06/21 16:51:40;;;;;;;1.13;1.00;;;32.70;99.90;;;;;;20988820;28;20292;-72
2021/06/21 17:01:44;;;;;;;1.20;0.90;;;32.00;99.90;;;;;;20989166;28;20241;-76
2021/06/21 17:11:52;;;;;;;1.38;1.00;;;32.20;99.90;;;;;;20989596;28;20239;-75
2021/06/21 17:21:56;;;;;;;3.85;0.77;;;32.10;99.90;;;;;;20987667;28;20220;-73
2021/06/21 17:32:01;;;;;;;1.13;0.82;;;31.90;99.90;;;;;;20988243;28;20276;-73
2021/06/21 17:42:07;;;;;;;0.95;0.85;;;31.40;99.90;;;;;;21041597;28;20222;-75
2021/06/21 17:52:13;;;;;;;0.80;0.50;;;30.30;99.90;;;;;;21067085;28;20275;-79
2021/06/21 18:02:16;;;;;;;1.13;0.77;;;29.70;99.90;;;;;;21067856;28;20330;-75
2021/06/21 18:12:22;;;;;;;2.15;0.75;;;29.80;99.90;;;;;;21032453;28;20196;-78
2021/06/21 18:22:26;;;;;;;1.60;0.90;;;29.30;99.90;;;;;;21038425;28;20220;-74
2021/06/21 18:32:32;;;;;;;1.70;0.85;;;29.30;99.90;;;;;;20980010;28;20674;-75
2021/06/21 18:42:53;;;;;;;0.73;0.63;;;29.70;99.90;;;;;;20982740;28;20320;-77
2021/06/21 18:52:59;;;;;;;4.40;1.63;;;28.50;99.90;;;;;;20982187;28;20697;-76
2021/06/21 19:03:03;;;;;;;1.48;0.35;;;27.30;99.90;;;;;;20978802;28;20727;-76
2021/06/21 19:13:09;;;;;;;0.85;0.40;;;25.30;99.90;;;;;;20976609;28;20205;-77
2021/06/21 19:23:13;;;;;;;0.75;0.32;;;24.80;99.90;;;;;;20982649;28;20281;-75
2021/06/21 19:33:18;;;;;;;0.55;0.55;;;24.60;99.90;;;;;;20977896;28;20540;-76
2021/06/21 19:43:22;;;;;;;2.40;0.77;;;24.20;99.90;;;;;;21000638;28;20311;-75
2021/06/21 19:53:29;;;;;;;0.57;0.57;;;24.00;99.90;;;;;;21006565;28;20250;-74
2021/06/21 20:03:33;;;;;;;1.07;0.50;;;23.90;99.90;;;;;;20994952;28;20232;-73
2021/06/21 20:13:38;;;;;;;0.43;0.43;;;23.90;99.90;;;;;;21000519;28;20235;-72
2021/06/21 20:23:41;;;;;;;1.33;0.60;;;23.80;99.90;;;;;;21027502;28;20255;-73
2021/06/21 20:33:49;;;;;;;1.93;0.53;;;23.90;99.90;;;;;;20996877;28;20200;-72
2021/06/21 20:43:53;;;;;;;0.30;0.23;;;23.70;99.90;;;;;;21045550;28;20216;-73
2021/06/21 20:53:59;;;;;;;1.80;0.60;;;23.50;99.90;;;;;;21055237;28;20200;-72
2021/06/21 21:04:02;;;;;;;8.43;0.70;;;23.30;99.90;;;;;;21045807;28;20414;-74
2021/06/21 21:14:07;;;;;;;0.43;0.30;;;23.40;99.90;;;;;;21053125;28;20585;-74
2021/06/21 21:24:11;;;;;;;6.20;0.70;;;23.40;99.90;;;;;;21041563;28;20683;-73
2021/06/21 21:34:16;;;;;;;10.40;1.00;;;23.60;99.90;;;;;;21060135;28;20192;-75
2021/06/21 21:44:20;;;;;;;0.77;0.40;;;23.70;99.90;;;;;;21070126;28;20415;-75
2021/06/21 21:54:25;;;;;;;2.13;1.43;;;23.30;99.90;;;;;;21058656;28;20239;-72
2021/06/21 22:04:29;;;;;;;5.27;1.27;;;23.20;99.90;;;;;;21058536;28;20232;-73
2021/06/21 22:14:34;;;;;;;5.50;1.97;;;23.00;99.90;;;;;;21052423;28;20207;-74
2021/06/21 22:24:38;;;;;;;0.87;0.87;;;22.70;99.90;;;;;;21030572;28;20657;-71
2021/06/21 22:34:43;;;;;;;1.50;0.73;;;22.80;99.90;;;;;;21014288;28;20196;-72
2021/06/21 22:44:47;;;;;;;1.23;0.60;;;22.50;99.90;;;;;;21022649;28;20718;-73
2021/06/21 22:54:53;;;;;;;2.87;0.73;;;22.40;99.90;;;;;;21023240;28;20564;-72
2021/06/21 23:04:56;;;;;;;1.90;1.50;;;22.20;99.90;;;;;;20999057;28;20227;-72
2021/06/21 23:15:02;;;;;;;1.23;0.80;;;22.00;99.90;;;;;;20998326;28;20208;-74
2021/06/21 23:25:08;;;;;;;0.60;0.40;;;21.90;99.90;;;;;;21021459;28;20720;-74
2021/06/21 23:35:15;;;;;;;0.30;0.30;;;21.90;99.90;;;;;;21022255;28;20270;-73
2021/06/21 23:45:19;;;;;;;0.70;0.60;;;22.00;99.90;;;;;;21011234;28;20209;-73
2021/06/21 23:55:25;;;;;;;0.63;0.47;;;22.00;99.90;;;;;;20997186;28;20212;-73
